Flight Track Log - Related Links

Times and Time Zones

All times are in EDT time to prevent confusion due to time zone crossing. See the CTL309 flight status page for this flight to view local times or setup timezone preferences in your user account.

Time Position Orientation Groundspeed Altitude Reporting Facility
EDT Latitude Longitude Course Direction KTS MPH feet Rate Location/Type
Fri 03:48:28 AM 40.0750 -83.1064 238° Southwest 140 161 1,300  Level Indianapolis Center
Fri 03:49:35 AM 40.0528 -83.1528 238° Southwest 146 168 2,500 1,000 Climbing Indianapolis Center
Fri 03:50:10 AM 40.0428 -83.1803 245° Southwest 144 166 3,000 885 Climbing Indianapolis Center
Fri 03:50:36 AM 40.0347 -83.2025 245° Southwest 149 171 3,400 900 Climbing Indianapolis Center
Fri 03:51:10 AM 40.0231 -83.2278 239° Southwest 147 169 3,900 500 Climbing Indianapolis Center
Fri 03:51:36 AM 40.0106 -83.2514 235° Southwest 152 175 3,900  Level Indianapolis Center
Fri 03:52:11 AM 39.9989 -83.2772 239° Southwest 153 176 3,900  Level Indianapolis Center
Fri 03:52:37 AM 39.9836 -83.3053 235° Southwest 179 206 3,900  Level Indianapolis Center
Fri 03:53:11 AM 39.9708 -83.3308 237° Southwest 167 192 3,900  Level Indianapolis Center
Fri 03:53:37 AM 39.9589 -83.3567 239° Southwest 170 196 3,900  Level Indianapolis Center
Fri 03:54:11 AM 39.9464 -83.3850 240° Southwest 171 197 3,900  Level Indianapolis Center
Fri 03:54:38 AM 39.9322 -83.4106 234° Southwest 169 194 3,900 -100 Level Indianapolis Center
Fri 03:55:11 AM 39.9203 -83.4353 238° Southwest 169 194 3,800  Descending Indianapolis Center
Fri 03:55:39 AM 39.9056 -83.4592 231° Southwest 172 198 3,900 98 Climbing Indianapolis Center
Fri 03:56:12 AM 39.8925 -83.4839 235° Southwest 168 193 3,900  Level Indianapolis Center
Fri 03:56:39 AM 39.8789 -83.5103 236° Southwest 170 196 3,900 -100 Level Indianapolis Center
Fri 03:57:12 AM 39.8650 -83.5317 230° Southwest 168 193 3,800  Descending Indianapolis Center
Fri 03:57:40 AM 39.8503 -83.5583 234° Southwest 169 194 3,900 100 Climbing Indianapolis Center
Fri 03:58:12 AM 39.8386 -83.5817 237° Southwest 168 193 3,900  Level Indianapolis Center
Fri 03:58:41 AM 39.8233 -83.6119 237° Southwest 183 211 3,900  Level Indianapolis Center
Fri 03:59:12 AM 39.8167 -83.6356 250° West 167 192 3,900  Level Indianapolis Center
Fri 03:59:41 AM 39.8025 -83.6664 239° Southwest 167 192 3,900  Level Indianapolis Center
Fri 04:00:13 AM 39.7936 -83.6903 244° Southwest 169 194 3,900  Level Indianapolis Center
Fri 04:00:42 AM 39.7858 -83.7214 252° West 173 199 3,900  Level Indianapolis Center
Fri 04:01:13 AM 39.7733 -83.7464 237° Southwest 170 196 3,900  Level Indianapolis Center
Fri 04:01:42 AM 39.7589 -83.7725 234° Southwest 174 200 3,900  Level Indianapolis Center
Fri 04:02:13 AM 39.7447 -83.7978 234° Southwest 172 198 3,900  Level Indianapolis Center
Fri 04:02:43 AM 39.7294 -83.8283 237° Southwest 170 196 3,900  Level Indianapolis Center
Fri 04:03:13 AM 39.7178 -83.8492 234° Southwest 172 198 3,900  Level Indianapolis Center
Fri 04:03:44 AM 39.7047 -83.8794 241° Southwest 171 197 3,900 -98 Level Indianapolis Center
Fri 04:04:14 AM 39.6908 -83.9025 232° Southwest 173 199 3,800  Descending Indianapolis Center
Fri 04:04:44 AM 39.6758 -83.9300 235° Southwest 176 203 3,900  Climbing Indianapolis Center
Fri 04:05:14 AM 39.6625 -83.9536 234° Southwest 174 200 3,800  Descending Indianapolis Center
Fri 04:05:45 AM 39.6486 -83.9833 239° Southwest 174 200 3,900 100 Climbing Indianapolis Center
Fri 04:06:14 AM 39.6356 -84.0058 233° Southwest 174 200 3,900  Level Indianapolis Center
Fri 04:07:15 AM 39.6075 -84.0600 236° Southwest 176 203 3,900  Level Indianapolis Center
Fri 04:08:15 AM 39.5650 -84.0908 209° Southwest 178 205 3,900  Level Indianapolis Center
Fri 04:09:15 AM 39.5189 -84.1122 200° South 175 201 3,900  Level Indianapolis Center
Fri 04:10:16 AM 39.4742 -84.1400 206° Southwest 176 203 3,900 -50 Level Indianapolis Center
Fri 04:11:16 AM 39.4294 -84.1689 207° Southwest 178 205 3,800  Descending Indianapolis Center
Fri 04:12:16 AM 39.3828 -84.1925 201° Southwest 177 204 3,900 -446 Climbing Indianapolis Center
Fri 04:13:17 AM 39.3311 -84.2272 207° Southwest 197 227 2,900 -446 Descending Indianapolis Center
Fri 04:14:17 AM 39.2903 -84.2708 220° Southwest 201 231 3,000 -50 Climbing Indianapolis Center
Fri 04:15:17 AM 39.3047 -84.3231 290° West 192 221 2,800 -99 Descending Indianapolis Center
Fri 04:16:18 AM 39.3247 -84.3800 294° West 181 208 2,800 -198 Level Indianapolis Center
Fri 04:17:18 AM 39.3397 -84.4311 291° West 171 197 2,400 -462 Descending Indianapolis Center
Fri 04:19:33 AM 39.3500 -84.4833 284° West 116 133 1,300 -489 Descending Cincinnati TRACON

Login

Don't have an account? Register now (free) for customized features, flight alerts, and more!